Time;durP1;ratioP1;P1;durP2;ratioP2;P2;SDS_P1;SDS_P2;PMS_P1;PMS_P2;Temp;Humidity;BMP_temperature;BMP_pressure;BME280_temperature;BME280_humidity;BME280_pressure;Samples;Min_cycle;Max_cycle;Signal;HPM_P1;HPM_P2
2022/04/27 00:01:06;;;;;;;8.27;4.35;;;;;;;;;;5050579;28;20490;-79
2022/04/27 00:03:52;;;;;;;7.65;3.92;;;;;;;;;;5050620;28;20045;-78
2022/04/27 00:06:46;;;;;;;7.45;4.32;;;;;;;;;;5042948;28;20496;-78
2022/04/27 00:09:42;;;;;;;7.50;4.43;;;;;;;;;;5043620;28;20477;-78
2022/04/27 00:12:28;;;;;;;6.97;4.10;;;;;;;;;;5042913;28;20615;-78
2022/04/27 00:15:13;;;;;;;6.68;4.05;;;;;;;;;;5051161;28;20045;-77
2022/04/27 00:17:59;;;;;;;7.20;4.40;;;;;;;;;;5051635;28;20417;-77
2022/04/27 00:20:45;;;;;;;5.57;3.78;;;;;;;;;;5051025;28;20048;-77
2022/04/27 00:23:32;;;;;;;5.05;3.85;;;;;;;;;;5051216;28;20389;-77
2022/04/27 00:26:17;;;;;;;6.38;3.58;;;;;;;;;;5051360;28;20041;-77
2022/04/27 00:29:02;;;;;;;5.93;3.40;;;;;;;;;;5050899;28;20044;-78
2022/04/27 00:31:47;;;;;;;4.50;3.33;;;;;;;;;;5057049;28;20045;-78
2022/04/27 00:34:33;;;;;;;6.40;3.72;;;;;;;;;;5050936;28;20037;-78
2022/04/27 00:37:19;;;;;;;6.03;3.17;;;;;;;;;;5056739;28;20040;-78
2022/04/27 00:40:04;;;;;;;9.63;4.10;;;;;;;;;;5051325;28;20416;-78
2022/04/27 00:42:49;;;;;;;8.50;3.95;;;;;;;;;;5050336;28;20049;-78
2022/04/27 00:45:35;;;;;;;7.90;3.90;;;;;;;;;;5051261;28;20045;-78
2022/04/27 00:48:21;;;;;;;6.25;3.92;;;;;;;;;;5050618;28;20041;-81
2022/04/27 00:51:07;;;;;;;9.48;4.28;;;;;;;;;;5050578;28;20406;-79
2022/04/27 00:53:53;;;;;;;9.07;3.65;;;;;;;;;;5050866;28;20037;-79
2022/04/27 00:56:39;;;;;;;5.53;3.38;;;;;;;;;;5056085;28;20044;-80
2022/04/27 00:59:25;;;;;;;3.58;2.85;;;;;;;;;;5056763;28;20044;-79
2022/04/27 01:02:10;;;;;;;4.70;2.50;;;;;;;;;;5056181;28;20044;-80
2022/04/27 01:04:56;;;;;;;5.13;3.33;;;;;;;;;;5050532;28;20413;-80
2022/04/27 01:07:43;;;;;;;7.32;3.80;;;;;;;;;;5055949;28;20041;-79
2022/04/27 01:10:28;;;;;;;11.63;5.20;;;;;;;;;;5056034;28;20053;-80
2022/04/27 01:13:14;;;;;;;8.88;4.15;;;;;;;;;;5056267;28;20041;-80
2022/04/27 01:16:02;;;;;;;14.82;7.55;;;;;;;;;;5056529;28;20049;-79
2022/04/27 01:18:49;;;;;;;13.50;6.93;;;;;;;;;;5055951;28;20049;-79
2022/04/27 01:21:35;;;;;;;11.75;6.43;;;;;;;;;;5050547;28;20406;-79
2022/04/27 01:24:24;;;;;;;16.60;5.55;;;;;;;;;;5055809;28;20421;-80
2022/04/27 01:27:10;;;;;;;11.05;5.07;;;;;;;;;;5056061;28;20044;-79
2022/04/27 01:29:55;;;;;;;10.75;4.28;;;;;;;;;;5056417;28;20045;-79
2022/04/27 01:32:41;;;;;;;13.85;3.65;;;;;;;;;;5050178;28;20129;-79
2022/04/27 01:35:26;;;;;;;8.15;3.30;;;;;;;;;;5050301;28;20044;-81
2022/04/27 01:38:12;;;;;;;4.63;2.95;;;;;;;;;;5055893;28;20041;-80
2022/04/27 01:40:57;;;;;;;5.38;2.97;;;;;;;;;;5055931;28;20045;-79
2022/04/27 01:43:42;;;;;;;4.95;3.40;;;;;;;;;;5055689;28;20410;-79
2022/04/27 01:46:28;;;;;;;6.10;3.75;;;;;;;;;;5055608;28;20044;-80
2022/04/27 01:49:13;;;;;;;5.32;3.80;;;;;;;;;;5056056;28;20045;-79
2022/04/27 01:55:02;;;;;;;5.95;3.90;;;;;;;;;;5055817;28;20041;-80
2022/04/27 01:57:49;;;;;;;5.78;3.50;;;;;;;;;;5055758;28;20049;-80
2022/04/27 02:00:35;;;;;;;12.98;3.47;;;;;;;;;;5069938;28;20048;-79
2022/04/27 02:03:21;;;;;;;5.70;4.13;;;;;;;;;;5063032;28;20033;-79
2022/04/27 02:06:07;;;;;;;3.90;3.47;;;;;;;;;;5050037;28;20041;-80
2022/04/27 02:08:51;;;;;;;5.93;3.22;;;;;;;;;;5056174;28;20037;-80
2022/04/27 02:11:42;;;;;;;9.48;3.72;;;;;;;;;;5055626;28;20045;-80
2022/04/27 02:14:27;;;;;;;9.55;5.13;;;;;;;;;;5055110;28;20037;-80
2022/04/27 02:17:13;;;;;;;11.73;5.30;;;;;;;;;;5055915;28;20049;-79
2022/04/27 02:20:00;;;;;;;13.60;5.88;;;;;;;;;;5058974;28;20048;-80
2022/04/27 02:22:46;;;;;;;9.48;5.20;;;;;;;;;;5058485;28;20041;-79
2022/04/27 02:25:31;;;;;;;11.95;5.00;;;;;;;;;;5059121;28;20044;-79
2022/04/27 02:28:17;;;;;;;8.50;4.32;;;;;;;;;;5052746;28;20056;-79
2022/04/27 02:31:03;;;;;;;6.72;4.65;;;;;;;;;;5058757;28;20044;-79
2022/04/27 02:33:49;;;;;;;8.07;4.57;;;;;;;;;;5058529;28;20045;-79
2022/04/27 02:36:34;;;;;;;6.70;4.93;;;;;;;;;;5044458;28;20061;-79
2022/04/27 02:39:19;;;;;;;6.03;4.50;;;;;;;;;;5058373;28;20045;-79
2022/04/27 02:42:06;;;;;;;4.88;3.78;;;;;;;;;;5058432;28;20044;-79
2022/04/27 02:44:53;;;;;;;4.75;3.63;;;;;;;;;;5058358;28;20041;-80
2022/04/27 02:47:40;;;;;;;4.18;3.40;;;;;;;;;;5058445;28;20048;-79
2022/04/27 02:53:29;;;;;;;10.05;3.63;;;;;;;;;;5058400;28;20055;-80
2022/04/27 02:56:15;;;;;;;58.25;26.58;;;;;;;;;;5058269;28;20397;-78
2022/04/27 02:59:00;;;;;;;105.13;47.58;;;;;;;;;;5058115;28;20053;-78
2022/04/27 03:01:46;;;;;;;78.57;33.47;;;;;;;;;;5058143;28;20037;-79
2022/04/27 03:04:31;;;;;;;53.65;25.77;;;;;;;;;;5052410;28;20044;-79
2022/04/27 03:07:19;;;;;;;49.75;24.92;;;;;;;;;;5058258;28;20044;-79
2022/04/27 03:10:08;;;;;;;44.35;22.42;;;;;;;;;;5058226;28;20037;-78
2022/04/27 03:12:54;;;;;;;28.50;17.25;;;;;;;;;;5061919;28;20037;-79
2022/04/27 03:15:39;;;;;;;15.38;9.90;;;;;;;;;;5056366;28;20048;-79
2022/04/27 03:18:25;;;;;;;10.60;6.07;;;;;;;;;;5061297;28;20049;-79
2022/04/27 03:21:11;;;;;;;6.80;5.03;;;;;;;;;;5056284;28;20037;-79
2022/04/27 03:23:56;;;;;;;8.00;4.25;;;;;;;;;;5055707;28;20045;-79
2022/04/27 03:26:42;;;;;;;6.15;4.15;;;;;;;;;;5055978;28;20041;-79
2022/04/27 03:29:27;;;;;;;7.72;4.40;;;;;;;;;;5061081;28;20052;-79
2022/04/27 03:32:18;;;;;;;7.25;4.85;;;;;;;;;;5059557;28;20045;-79
2022/04/27 03:35:10;;;;;;;8.10;3.97;;;;;;;;;;5057719;28;20045;-79
2022/04/27 03:37:58;;;;;;;7.75;3.88;;;;;;;;;;5057580;28;20397;-79
2022/04/27 03:40:43;;;;;;;13.25;4.50;;;;;;;;;;5051467;28;20037;-79
2022/04/27 03:43:28;;;;;;;7.05;4.18;;;;;;;;;;5057252;28;20478;-79
2022/04/27 03:46:14;;;;;;;7.15;4.70;;;;;;;;;;5057162;28;20402;-79
2022/04/27 03:48:59;;;;;;;9.98;3.78;;;;;;;;;;5057482;28;20057;-79
2022/04/27 03:51:44;;;;;;;10.32;4.05;;;;;;;;;;5053784;28;20045;-79
2022/04/27 03:54:33;;;;;;;4.50;3.50;;;;;;;;;;5057063;28;20029;-79
2022/04/27 03:57:20;;;;;;;7.45;3.70;;;;;;;;;;5057182;28;20401;-79
2022/04/27 04:00:07;;;;;;;9.23;3.92;;;;;;;;;;5057508;28;20045;-79
2022/04/27 04:03:02;;;;;;;9.30;3.97;;;;;;;;;;5051201;28;20045;-79
2022/04/27 04:05:49;;;;;;;7.70;4.30;;;;;;;;;;5057147;28;20052;-78
2022/04/27 04:08:36;;;;;;;7.15;4.72;;;;;;;;;;5057083;28;20049;-78
2022/04/27 04:11:22;;;;;;;6.95;3.75;;;;;;;;;;5057410;28;20402;-78
2022/04/27 04:14:43;;;;;;;6.38;4.22;;;;;;;;;;5009800;28;20034;-78
2022/04/27 04:17:47;;;;;;;6.80;4.03;;;;;;;;;;5072405;28;20053;-78
2022/04/27 04:20:54;;;;;;;7.30;3.65;;;;;;;;;;5057819;28;20040;-79
2022/04/27 04:23:48;;;;;;;6.45;3.50;;;;;;;;;;5056533;28;20037;-78
2022/04/27 04:29:38;;;;;;;8.70;3.60;;;;;;;;;;5056617;28;20045;-78
2022/04/27 04:32:25;;;;;;;5.03;3.30;;;;;;;;;;5056847;28;20278;-78
2022/04/27 04:35:34;;;;;;;11.10;3.80;;;;;;;;;;5049814;28;20045;-78
2022/04/27 04:38:20;;;;;;;7.55;3.67;;;;;;;;;;5056421;28;20045;-78
2022/04/27 04:41:06;;;;;;;13.65;3.65;;;;;;;;;;5055342;28;20053;-77
2022/04/27 04:44:18;;;;;;;13.50;5.07;;;;;;;;;;5057047;28;20037;-77
2022/04/27 04:47:28;;;;;;;18.65;6.47;;;;;;;;;;5056493;28;20045;-78
2022/04/27 04:50:39;;;;;;;14.80;6.93;;;;;;;;;;5036786;28;20398;-78
2022/04/27 04:53:45;;;;;;;16.55;6.80;;;;;;;;;;5048873;28;20041;-78
2022/04/27 04:57:02;;;;;;;14.10;7.18;;;;;;;;;;5044315;28;20037;-78
2022/04/27 05:00:25;;;;;;;8.77;6.22;;;;;;;;;;5053701;28;20037;-79
2022/04/27 05:03:30;;;;;;;13.82;6.07;;;;;;;;;;5050690;28;20041;-78
2022/04/27 05:06:19;;;;;;;16.23;6.40;;;;;;;;;;5050105;28;20045;-78
2022/04/27 05:09:18;;;;;;;11.85;5.22;;;;;;;;;;5056183;28;20393;-79
2022/04/27 05:12:27;;;;;;;13.82;4.95;;;;;;;;;;5063714;28;20470;-79
2022/04/27 05:15:18;;;;;;;7.13;3.80;;;;;;;;;;5050129;28;20041;-78
2022/04/27 05:18:18;;;;;;;6.13;3.55;;;;;;;;;;5049920;28;20485;-79
2022/04/27 05:21:23;;;;;;;20.48;4.15;;;;;;;;;;5049942;28;20041;-79
2022/04/27 05:24:34;;;;;;;8.02;3.45;;;;;;;;;;5057033;28;20045;-79
2022/04/27 05:27:42;;;;;;;10.02;4.60;;;;;;;;;;5056455;28;20040;-78
2022/04/27 05:33:50;;;;;;;8.48;4.22;;;;;;;;;;5050180;28;20037;-78
2022/04/27 05:36:57;;;;;;;12.68;6.88;;;;;;;;;;5056666;28;20049;-79
2022/04/27 05:40:21;;;;;;;6.20;3.40;;;;;;;;;;5008440;28;20054;-79
2022/04/27 05:43:26;;;;;;;4.05;3.00;;;;;;;;;;5014548;28;20046;-79
2022/04/27 05:46:31;;;;;;;;;;;;;;;;;;5050336;28;20033;-79
2022/04/27 05:49:46;;;;;;;8.35;3.05;;;;;;;;;;5080082;28;19913;-79
2022/04/27 05:52:59;;;;;;;5.88;3.03;;;;;;;;;;5050775;28;20053;-78
2022/04/27 05:56:09;;;;;;;6.23;2.57;;;;;;;;;;5053278;28;20048;-81
2022/04/27 05:59:17;;;;;;;4.57;2.10;;;;;;;;;;5054299;28;20274;-79
2022/04/27 06:02:22;;;;;;;7.57;2.78;;;;;;;;;;5059914;28;20049;-78
2022/04/27 06:05:11;;;;;;;5.53;2.30;;;;;;;;;;5059043;28;20044;-80
2022/04/27 06:07:57;;;;;;;4.15;2.17;;;;;;;;;;5058921;28;20482;-79
2022/04/27 06:10:43;;;;;;;10.38;2.45;;;;;;;;;;5058650;28;20049;-79
2022/04/27 06:13:30;;;;;;;5.25;2.20;;;;;;;;;;5059283;28;20396;-79
2022/04/27 06:16:35;;;;;;;5.72;2.33;;;;;;;;;;5052985;28;20033;-80
2022/04/27 06:19:26;;;;;;;6.50;2.53;;;;;;;;;;5058719;28;20041;-79
2022/04/27 06:22:13;;;;;;;6.90;2.42;;;;;;;;;;5058922;28;20048;-80
2022/04/27 06:24:59;;;;;;;7.60;2.67;;;;;;;;;;5058458;28;20045;-80
2022/04/27 06:27:53;;;;;;;6.47;2.33;;;;;;;;;;5053172;28;20041;-81
2022/04/27 06:30:39;;;;;;;8.13;2.30;;;;;;;;;;5053082;28;20056;-80
2022/04/27 06:33:25;;;;;;;7.80;2.80;;;;;;;;;;5072065;28;20037;-79
2022/04/27 06:36:11;;;;;;;6.88;3.90;;;;;;;;;;5064312;28;20040;-80
2022/04/27 06:38:57;;;;;;;9.00;3.42;;;;;;;;;;5052460;28;20045;-80
2022/04/27 06:41:51;;;;;;;9.88;3.70;;;;;;;;;;5052906;28;20053;-80
2022/04/27 06:44:55;;;;;;;7.90;3.95;;;;;;;;;;5052286;28;20045;-80
2022/04/27 06:48:12;;;;;;;6.07;4.13;;;;;;;;;;5035354;28;20045;-80
2022/04/27 06:51:18;;;;;;;10.02;4.00;;;;;;;;;;5052276;28;20049;-80
2022/04/27 06:54:22;;;;;;;8.75;4.55;;;;;;;;;;5052115;28;20037;-81
2022/04/27 06:57:25;;;;;;;16.20;4.93;;;;;;;;;;5052056;28;20485;-80
2022/04/27 07:00:19;;;;;;;12.02;5.00;;;;;;;;;;5057901;28;20489;-80
2022/04/27 07:03:05;;;;;;;9.88;4.70;;;;;;;;;;5051999;28;20041;-80
2022/04/27 07:05:51;;;;;;;7.43;4.80;;;;;;;;;;5057867;28;20053;-80
2022/04/27 07:08:38;;;;;;;7.90;4.70;;;;;;;;;;5057877;28;20045;-80
2022/04/27 07:11:23;;;;;;;11.15;5.22;;;;;;;;;;5051986;28;20037;-80
2022/04/27 07:14:10;;;;;;;8.38;4.75;;;;;;;;;;5051874;28;20386;-80
2022/04/27 07:16:55;;;;;;;11.05;5.03;;;;;;;;;;5052197;28;20033;-79
2022/04/27 07:19:40;;;;;;;7.78;5.13;;;;;;;;;;5051741;28;20049;-80
2022/04/27 07:22:25;;;;;;;12.75;5.28;;;;;;;;;;5051949;28;20494;-76
2022/04/27 07:25:10;;;;;;;8.63;5.43;;;;;;;;;;5058633;28;20045;-77
2022/04/27 07:27:55;;;;;;;9.18;5.35;;;;;;;;;;5058237;28;20040;-77
2022/04/27 07:30:41;;;;;;;9.85;5.22;;;;;;;;;;5058552;28;20048;-76
2022/04/27 07:33:27;;;;;;;11.77;5.90;;;;;;;;;;5050686;28;20029;-80
2022/04/27 07:36:12;;;;;;;7.35;4.38;;;;;;;;;;5050254;28;20045;-76
2022/04/27 07:38:58;;;;;;;8.73;5.30;;;;;;;;;;5057956;28;20498;-76
2022/04/27 07:41:45;;;;;;;6.50;4.90;;;;;;;;;;5051369;28;20041;-78
2022/04/27 07:44:30;;;;;;;9.32;5.22;;;;;;;;;;5051509;28;20045;-77
2022/04/27 07:47:16;;;;;;;13.02;4.85;;;;;;;;;;5052373;28;20045;-76
2022/04/27 07:50:01;;;;;;;11.40;4.97;;;;;;;;;;5051087;28;20060;-76
2022/04/27 07:52:47;;;;;;;6.70;4.90;;;;;;;;;;5051236;28;20041;-77
2022/04/27 07:55:32;;;;;;;8.70;4.40;;;;;;;;;;5051380;28;20044;-76
2022/04/27 07:58:18;;;;;;;10.32;4.78;;;;;;;;;;5051465;28;20045;-77
2022/04/27 08:01:04;;;;;;;8.95;4.43;;;;;;;;;;5043019;28;20041;-77
2022/04/27 08:03:49;;;;;;;6.70;3.85;;;;;;;;;;5050660;28;20041;-77
2022/04/27 08:06:36;;;;;;;9.65;3.97;;;;;;;;;;5051448;28;20390;-76
2022/04/27 08:09:21;;;;;;;8.77;3.65;;;;;;;;;;5051213;28;20108;-76
2022/04/27 08:12:07;;;;;;;5.97;3.40;;;;;;;;;;5050354;28;20037;-76
2022/04/27 08:14:53;;;;;;;5.93;3.10;;;;;;;;;;5051625;28;20041;-76
2022/04/27 08:18:00;;;;;;;3.25;2.53;;;;;;;;;;5057781;28;20045;-76
2022/04/27 08:23:50;;;;;;;5.38;2.70;;;;;;;;;;5051045;28;20482;-77
2022/04/27 08:26:35;;;;;;;10.43;3.15;;;;;;;;;;5051106;28;20033;-76
2022/04/27 08:29:19;;;;;;;5.68;2.88;;;;;;;;;;5051584;28;20482;-76
2022/04/27 08:32:04;;;;;;;2.83;2.30;;;;;;;;;;5056491;28;20497;-77
2022/04/27 08:34:50;;;;;;;7.60;3.03;;;;;;;;;;5051129;28;20041;-77
2022/04/27 08:37:35;;;;;;;7.20;2.80;;;;;;;;;;5051071;28;20041;-78
2022/04/27 08:40:21;;;;;;;3.78;2.42;;;;;;;;;;5050583;28;20041;-77
2022/04/27 08:43:09;;;;;;;5.30;2.65;;;;;;;;;;5050786;28;20486;-77
2022/04/27 08:45:55;;;;;;;4.80;2.42;;;;;;;;;;5065115;28;20037;-78
2022/04/27 08:48:46;;;;;;;4.82;2.72;;;;;;;;;;5053793;28;20041;-77
2022/04/27 08:51:31;;;;;;;4.25;2.72;;;;;;;;;;5050899;28;20049;-77
2022/04/27 08:54:17;;;;;;;6.28;2.45;;;;;;;;;;5049113;28;20482;-77
2022/04/27 08:57:04;;;;;;;5.00;2.63;;;;;;;;;;5048761;28;20413;-76
2022/04/27 08:59:50;;;;;;;5.03;2.70;;;;;;;;;;5056779;28;20044;-77
2022/04/27 09:02:35;;;;;;;6.47;2.60;;;;;;;;;;5050451;28;20045;-76
2022/04/27 10:30:14;;;;;;;5.53;2.13;;;;;;;;;;5168013;27;160538;-76
2022/04/27 10:32:59;;;;;;;7.22;2.00;;;;;;;;;;5152010;27;20047;-77
2022/04/27 10:35:45;;;;;;;3.05;1.98;;;;;;;;;;5152726;27;20042;-75
2022/04/27 10:38:30;;;;;;;3.45;1.83;;;;;;;;;;5158811;27;20047;-76
2022/04/27 10:41:14;;;;;;;4.30;1.75;;;;;;;;;;5151324;27;20047;-79
2022/04/27 10:43:59;;;;;;;4.93;1.90;;;;;;;;;;5152834;27;20038;-76
2022/04/27 10:46:58;;;;;;;2.88;1.90;;;;;;;;;;5151580;27;20046;-79
2022/04/27 10:49:50;;;;;;;3.53;1.98;;;;;;;;;;5152600;27;20047;-76
2022/04/27 10:52:52;;;;;;;2.92;1.83;;;;;;;;;;5158979;27;20039;-76
2022/04/27 10:55:40;;;;;;;3.78;1.60;;;;;;;;;;5156134;27;20039;-77
2022/04/27 10:58:34;;;;;;;3.85;1.90;;;;;;;;;;5171422;27;20042;-75
2022/04/27 11:01:27;;;;;;;8.57;1.92;;;;;;;;;;5151615;27;20035;-75
2022/04/27 11:04:13;;;;;;;4.40;1.70;;;;;;;;;;5151901;27;20054;-76
2022/04/27 11:07:15;;;;;;;5.22;1.80;;;;;;;;;;5151570;27;20043;-75
2022/04/27 11:10:11;;;;;;;1.88;1.30;;;;;;;;;;5151061;27;20043;-76
2022/04/27 11:12:56;;;;;;;5.43;1.70;;;;;;;;;;5151437;27;20047;-76
2022/04/27 11:15:42;;;;;;;3.70;1.70;;;;;;;;;;5157648;27;20047;-75
2022/04/27 11:18:47;;;;;;;3.78;1.67;;;;;;;;;;5151534;27;20043;-76
2022/04/27 11:21:33;;;;;;;5.20;1.60;;;;;;;;;;5158272;27;20047;-75
2022/04/27 11:24:20;;;;;;;2.92;1.63;;;;;;;;;;5151318;27;20043;-75
2022/04/27 11:27:06;;;;;;;2.92;2.00;;;;;;;;;;5158602;27;20043;-75
2022/04/27 11:29:54;;;;;;;6.95;1.88;;;;;;;;;;5150199;27;20039;-76
2022/04/27 11:32:39;;;;;;;4.63;1.80;;;;;;;;;;5151244;27;20047;-75
2022/04/27 11:35:25;;;;;;;1.83;1.60;;;;;;;;;;5158063;27;20399;-76
2022/04/27 11:38:10;;;;;;;3.60;2.05;;;;;;;;;;5150444;27;20035;-75
2022/04/27 11:40:56;;;;;;;4.32;2.00;;;;;;;;;;5140869;27;20043;-76
2022/04/27 11:43:41;;;;;;;7.47;2.13;;;;;;;;;;5143350;27;20039;-76
2022/04/27 11:46:36;;;;;;;3.33;1.85;;;;;;;;;;5137041;27;20043;-76
2022/04/27 11:49:24;;;;;;;8.75;2.25;;;;;;;;;;5144298;27;20042;-76
2022/04/27 11:52:18;;;;;;;6.03;2.10;;;;;;;;;;5135989;27;20487;-75
2022/04/27 11:55:11;;;;;;;;;;;;;;;;;;5137599;27;20035;-75
2022/04/27 11:57:56;;;;;;;4.65;2.13;;;;;;;;;;5136612;27;19915;-77
2022/04/27 12:00:42;;;;;;;4.40;1.70;;;;;;;;;;5136828;27;20407;-77
2022/04/27 12:03:30;;;;;;;6.10;1.83;;;;;;;;;;5143831;27;20043;-75
2022/04/27 12:06:22;;;;;;;4.63;1.70;;;;;;;;;;5136420;27;20043;-76
2022/04/27 12:09:15;;;;;;;4.40;1.70;;;;;;;;;;5137210;27;20047;-77
2022/04/27 12:12:11;;;;;;;6.15;1.90;;;;;;;;;;5143248;27;20047;-78
2022/04/27 12:15:02;;;;;;;4.97;1.90;;;;;;;;;;5136357;27;20055;-76
2022/04/27 12:17:53;;;;;;;5.65;1.85;;;;;;;;;;5136369;27;20039;-77
2022/04/27 12:20:40;;;;;;;3.58;1.60;;;;;;;;;;5136121;27;20039;-76
2022/04/27 12:23:28;;;;;;;2.67;1.60;;;;;;;;;;5136264;27;20047;-77
2022/04/27 12:26:14;;;;;;;4.03;1.83;;;;;;;;;;5136225;27;20484;-76
2022/04/27 12:29:07;;;;;;;5.13;1.70;;;;;;;;;;5136127;27;20039;-76
2022/04/27 12:31:56;;;;;;;5.90;1.77;;;;;;;;;;5143643;27;20035;-76
2022/04/27 12:37:46;;;;;;;3.30;2.00;;;;;;;;;;5136913;27;20043;-77
2022/04/27 12:40:32;;;;;;;7.13;1.80;;;;;;;;;;5142587;27;20059;-78
2022/04/27 12:43:17;;;;;;;5.18;1.83;;;;;;;;;;5136183;27;20039;-78
2022/04/27 12:46:07;;;;;;;3.13;1.75;;;;;;;;;;5142521;27;20051;-77
2022/04/27 12:49:03;;;;;;;7.55;1.90;;;;;;;;;;5135703;27;20499;-76
2022/04/27 12:51:48;;;;;;;7.10;2.67;;;;;;;;;;5134029;27;20051;-76
2022/04/27 12:54:36;;;;;;;6.43;1.98;;;;;;;;;;5135309;27;20051;-78
2022/04/27 12:57:21;;;;;;;6.57;2.10;;;;;;;;;;5142470;27;20039;-78
2022/04/27 13:00:08;;;;;;;3.45;2.00;;;;;;;;;;5142132;27;20051;-76
2022/04/27 13:02:53;;;;;;;4.47;1.90;;;;;;;;;;5142269;27;20043;-79
2022/04/27 13:05:40;;;;;;;4.25;2.00;;;;;;;;;;5141570;27;20047;-77
2022/04/27 13:08:25;;;;;;;3.45;1.90;;;;;;;;;;5147630;27;20039;-77
2022/04/27 13:14:15;;;;;;;3.85;1.50;;;;;;;;;;5136074;27;20039;-80
2022/04/27 13:17:00;;;;;;;2.22;1.42;;;;;;;;;;5135329;27;20047;-77
2022/04/27 13:19:46;;;;;;;4.28;1.67;;;;;;;;;;5142141;27;20043;-78
2022/04/27 13:22:31;;;;;;;3.70;1.63;;;;;;;;;;5142245;27;20043;-81
2022/04/27 13:25:17;;;;;;;5.50;1.70;;;;;;;;;;5134127;27;20047;-78
2022/04/27 13:28:02;;;;;;;2.65;1.40;;;;;;;;;;5134205;27;20039;-79
2022/04/27 13:30:47;;;;;;;7.38;1.90;;;;;;;;;;5134527;27;20043;-82
2022/04/27 13:33:33;;;;;;;7.20;2.00;;;;;;;;;;5141980;27;20427;-81
2022/04/27 13:36:19;;;;;;;4.13;1.50;;;;;;;;;;5135391;27;20048;-80
2022/04/27 13:39:06;;;;;;;3.08;1.70;;;;;;;;;;5146279;27;20039;-80
2022/04/27 13:41:51;;;;;;;5.22;2.42;;;;;;;;;;5134811;27;20392;-80
2022/04/27 13:44:37;;;;;;;3.80;1.60;;;;;;;;;;5134503;27;20047;-80
2022/04/27 13:47:26;;;;;;;7.03;2.20;;;;;;;;;;5135020;27;20047;-81
2022/04/27 13:50:12;;;;;;;2.08;1.55;;;;;;;;;;5134923;27;20039;-84
2022/04/27 13:52:58;;;;;;;6.35;2.00;;;;;;;;;;5134641;27;20054;-84
2022/04/27 13:55:43;;;;;;;6.13;1.92;;;;;;;;;;5141736;27;20040;-85
2022/04/27 13:58:29;;;;;;;5.82;1.75;;;;;;;;;;5126167;27;20039;-83
2022/04/27 14:01:15;;;;;;;3.08;1.52;;;;;;;;;;5134425;27;20043;-84
2022/04/27 14:04:00;;;;;;;2.80;1.65;;;;;;;;;;5133914;27;20051;-77
2022/04/27 14:06:46;;;;;;;5.88;2.00;;;;;;;;;;5141007;27;20039;-81
2022/04/27 14:09:31;;;;;;;3.70;1.90;;;;;;;;;;5141967;27;20051;-82
2022/04/27 14:15:21;;;;;;;4.78;2.00;;;;;;;;;;5134234;27;20035;-81
2022/04/27 14:18:10;;;;;;;3.25;1.70;;;;;;;;;;5134587;27;20043;-80
2022/04/27 14:20:56;;;;;;;4.43;1.77;;;;;;;;;;5140827;27;20051;-81
2022/04/27 14:23:41;;;;;;;4.65;1.92;;;;;;;;;;5134082;27;20051;-81
2022/04/27 14:26:27;;;;;;;6.60;1.90;;;;;;;;;;5134920;27;20043;-83
2022/04/27 14:29:13;;;;;;;3.25;1.90;;;;;;;;;;5137107;27;20051;-80
2022/04/27 14:32:01;;;;;;;3.00;1.75;;;;;;;;;;5133801;28;20051;-80
2022/04/27 14:34:46;;;;;;;11.27;2.00;;;;;;;;;;5140712;27;20480;-80
2022/04/27 14:37:32;;;;;;;3.13;1.77;;;;;;;;;;5141320;27;20047;-81
2022/04/27 14:40:18;;;;;;;3.10;1.85;;;;;;;;;;5134359;28;20035;-81
2022/04/27 14:43:07;;;;;;;3.78;1.90;;;;;;;;;;5133289;28;20039;-79
2022/04/27 14:45:53;;;;;;;6.00;2.15;;;;;;;;;;5133979;28;20050;-80
2022/04/27 14:48:42;;;;;;;6.38;2.20;;;;;;;;;;5133974;28;20043;-79
2022/04/27 14:51:27;;;;;;;2.30;1.60;;;;;;;;;;5141044;27;20464;-81
2022/04/27 14:54:14;;;;;;;7.55;2.40;;;;;;;;;;5140240;27;20043;-80
2022/04/27 14:56:59;;;;;;;4.80;2.38;;;;;;;;;;5133711;28;20476;-80
2022/04/27 14:59:44;;;;;;;8.15;1.85;;;;;;;;;;5134135;28;20047;-82
2022/04/27 15:02:32;;;;;;;4.72;2.10;;;;;;;;;;5134765;28;20043;-80
2022/04/27 15:05:17;;;;;;;6.30;2.10;;;;;;;;;;5134480;28;20391;-80
2022/04/27 15:08:03;;;;;;;4.55;1.90;;;;;;;;;;5141410;27;20047;-80
2022/04/27 15:10:49;;;;;;;9.80;2.05;;;;;;;;;;5140494;27;20472;-82
2022/04/27 15:13:35;;;;;;;5.40;2.40;;;;;;;;;;5134430;28;20039;-81
2022/04/27 15:16:20;;;;;;;2.47;1.90;;;;;;;;;;5137385;27;20043;-81
2022/04/27 15:19:06;;;;;;;5.05;2.70;;;;;;;;;;5137914;27;20047;-81
2022/04/27 15:24:57;;;;;;;2.90;1.77;;;;;;;;;;5138502;27;20043;-80
2022/04/27 15:27:44;;;;;;;3.65;1.80;;;;;;;;;;5144822;27;20051;-81
2022/04/27 15:30:32;;;;;;;3.65;2.30;;;;;;;;;;5144145;27;20039;-80
2022/04/27 15:33:18;;;;;;;7.03;1.95;;;;;;;;;;5144155;27;20039;-80
2022/04/27 15:36:03;;;;;;;4.63;2.00;;;;;;;;;;5144464;27;20395;-80
2022/04/27 15:38:49;;;;;;;2.47;1.90;;;;;;;;;;5137230;27;20035;-79
2022/04/27 15:41:38;;;;;;;5.55;2.35;;;;;;;;;;5137307;27;20039;-79
2022/04/27 15:44:24;;;;;;;3.97;1.90;;;;;;;;;;5137691;27;20047;-78
2022/04/27 15:47:09;;;;;;;6.63;2.10;;;;;;;;;;5136977;27;20039;-79
2022/04/27 15:49:55;;;;;;;5.38;2.30;;;;;;;;;;5137267;27;20396;-81
2022/04/27 15:52:42;;;;;;;3.92;2.35;;;;;;;;;;5136132;27;20043;-80
2022/04/27 15:55:29;;;;;;;6.68;2.08;;;;;;;;;;5144316;27;20036;-79
2022/04/27 15:58:17;;;;;;;6.35;2.30;;;;;;;;;;5136636;27;20039;-80
2022/04/27 16:01:03;;;;;;;6.28;2.38;;;;;;;;;;5136519;27;20039;-81
2022/04/27 16:03:48;;;;;;;3.47;1.75;;;;;;;;;;5137093;27;20043;-79
2022/04/27 16:06:34;;;;;;;3.65;2.08;;;;;;;;;;5136755;27;20039;-81
2022/04/27 16:09:19;;;;;;;4.72;2.03;;;;;;;;;;5136560;27;20051;-79
2022/04/27 16:12:07;;;;;;;7.80;2.10;;;;;;;;;;5136870;27;20043;-80
2022/04/27 16:14:51;;;;;;;6.07;2.30;;;;;;;;;;5136117;27;20043;-82
2022/04/27 16:17:38;;;;;;;5.20;2.65;;;;;;;;;;5147612;27;20046;-81
2022/04/27 16:20:24;;;;;;;7.63;2.58;;;;;;;;;;5142700;27;20054;-81
2022/04/27 16:23:10;;;;;;;6.78;2.58;;;;;;;;;;5141501;27;20051;-82
2022/04/27 16:25:55;;;;;;;3.22;1.80;;;;;;;;;;5148291;27;20039;-81
2022/04/27 16:28:40;;;;;;;3.90;2.00;;;;;;;;;;5144248;27;20031;-81
2022/04/27 16:31:26;;;;;;;2.38;1.58;;;;;;;;;;5140296;27;20491;-81
2022/04/27 16:34:12;;;;;;;4.22;2.58;;;;;;;;;;5140583;27;20039;-82
2022/04/27 16:36:58;;;;;;;4.18;2.17;;;;;;;;;;5142137;27;20039;-82
2022/04/27 16:39:44;;;;;;;8.15;2.20;;;;;;;;;;5143185;27;20047;-82
2022/04/27 16:42:30;;;;;;;5.93;1.92;;;;;;;;;;5135808;27;20040;-82
2022/04/27 16:45:17;;;;;;;3.53;2.58;;;;;;;;;;5142621;27;20479;-80
2022/04/27 16:48:02;;;;;;;4.78;2.20;;;;;;;;;;5135099;27;20031;-81
2022/04/27 16:50:48;;;;;;;2.78;2.10;;;;;;;;;;5135274;27;20055;-81
2022/04/27 16:53:34;;;;;;;5.03;2.50;;;;;;;;;;5143156;27;20035;-82
2022/04/27 16:56:19;;;;;;;5.70;2.75;;;;;;;;;;5136507;27;20039;-82
2022/04/27 16:59:05;;;;;;;4.88;2.30;;;;;;;;;;5136026;27;20043;-80
2022/04/27 17:01:50;;;;;;;3.10;2.00;;;;;;;;;;5142496;27;20031;-81
2022/04/27 17:04:36;;;;;;;5.53;2.47;;;;;;;;;;5135502;27;20047;-81
2022/04/27 17:07:22;;;;;;;6.85;2.85;;;;;;;;;;5142450;27;20042;-81
2022/04/27 17:10:07;;;;;;;5.95;2.15;;;;;;;;;;5135480;27;20047;-82
2022/04/27 17:12:53;;;;;;;13.77;6.57;;;;;;;;;;5135011;27;20039;-84
2022/04/27 17:15:38;;;;;;;6.82;4.00;;;;;;;;;;5135430;27;20051;-81
2022/04/27 17:18:24;;;;;;;6.07;3.55;;;;;;;;;;5135465;27;20047;-82
2022/04/27 17:21:14;;;;;;;7.10;2.75;;;;;;;;;;5136042;27;20047;-82
2022/04/27 17:24:00;;;;;;;18.13;4.20;;;;;;;;;;5134407;27;20039;-81
2022/04/27 17:29:54;;;;;;;12.05;3.80;;;;;;;;;;5136738;27;20492;-82
2022/04/27 17:32:42;;;;;;;14.35;5.38;;;;;;;;;;5145966;27;20055;-80
2022/04/27 17:35:29;;;;;;;13.43;4.55;;;;;;;;;;5155296;27;20495;-80
2022/04/27 17:38:14;;;;;;;10.75;3.88;;;;;;;;;;5141868;27;20047;-77
2022/04/27 17:41:01;;;;;;;8.55;3.03;;;;;;;;;;5140937;27;20090;-80
2022/04/27 17:43:46;;;;;;;5.15;2.13;;;;;;;;;;5134406;27;20051;-78
2022/04/27 17:46:32;;;;;;;14.75;3.13;;;;;;;;;;5141109;27;20039;-77
2022/04/27 17:49:18;;;;;;;10.18;3.38;;;;;;;;;;5134215;27;20491;-79
2022/04/27 17:52:03;;;;;;;10.20;3.72;;;;;;;;;;5136009;27;20427;-80
2022/04/27 17:54:50;;;;;;;9.48;2.97;;;;;;;;;;5140858;27;20400;-79
2022/04/27 17:58:01;;;;;;;8.48;3.63;;;;;;;;;;5135276;27;20396;-81
2022/04/27 18:00:49;;;;;;;3.88;2.67;;;;;;;;;;5133568;27;20479;-80
2022/04/27 18:03:37;;;;;;;6.22;2.75;;;;;;;;;;5134772;27;20038;-81
2022/04/27 18:06:21;;;;;;;4.00;3.03;;;;;;;;;;5134794;27;20039;-78
2022/04/27 18:09:07;;;;;;;5.22;2.95;;;;;;;;;;5133868;27;20043;-78
2022/04/27 18:11:53;;;;;;;7.95;3.78;;;;;;;;;;5140899;27;20035;-80
2022/04/27 18:14:39;;;;;;;8.57;4.90;;;;;;;;;;5141313;27;20035;-81
2022/04/27 18:17:24;;;;;;;11.13;5.53;;;;;;;;;;5132634;27;20051;-79
2022/04/27 18:20:13;;;;;;;18.48;5.68;;;;;;;;;;5133726;27;20039;-79
2022/04/27 18:22:58;;;;;;;8.45;5.40;;;;;;;;;;5133547;27;20035;-78
2022/04/27 18:25:44;;;;;;;9.52;6.35;;;;;;;;;;5134300;27;20400;-78
2022/04/27 18:28:31;;;;;;;9.90;6.10;;;;;;;;;;5139762;27;20043;-78
2022/04/27 18:31:17;;;;;;;16.95;6.65;;;;;;;;;;5134135;28;20047;-79
2022/04/27 18:34:03;;;;;;;7.88;6.35;;;;;;;;;;5134357;28;20411;-79
2022/04/27 18:36:49;;;;;;;9.05;6.97;;;;;;;;;;5133459;28;20392;-78
2022/04/27 18:39:36;;;;;;;14.75;7.88;;;;;;;;;;5140273;27;20063;-80
2022/04/27 18:42:23;;;;;;;9.00;7.45;;;;;;;;;;5141586;27;20043;-81
2022/04/27 18:51:20;;;;;;;8.98;6.68;;;;;;;;;;5140216;27;20043;-81